createdAt,value
2018-01-18T00:01:10.202Z,5.62
2018-01-18T00:02:10.233Z,5.55
2018-01-18T00:04:04.759Z,5.54
2018-01-18T00:05:04.768Z,5.51
2018-01-18T00:06:59.167Z,5.52
2018-01-18T00:07:59.268Z,5.54
2018-01-18T00:10:02.100Z,5.63
2018-01-18T00:10:59.726Z,5.52
2018-01-18T00:12:55.255Z,5.52
2018-01-18T00:13:54.457Z,5.57
2018-01-18T00:15:48.903Z,5.57
2018-01-18T00:16:49.984Z,5.44
2018-01-18T00:18:42.305Z,5.54
2018-01-18T00:19:42.312Z,5.54
2018-01-18T00:21:39.267Z,5.57
2018-01-18T00:22:38.420Z,5.45
2018-01-18T00:24:31.656Z,5.49
2018-01-18T00:25:32.187Z,5.52
2018-01-18T00:27:25.722Z,5.46
2018-01-18T00:28:25.098Z,5.46
2018-01-18T00:30:19.667Z,5.59
2018-01-18T00:31:19.736Z,5.48
2018-01-18T00:33:14.532Z,5.60
2018-01-18T00:34:14.529Z,5.54
2018-01-18T00:36:08.987Z,5.59
2018-01-18T00:37:09.064Z,5.54
2018-01-18T00:39:03.393Z,5.57
2018-01-18T00:40:03.406Z,5.46
2018-01-18T00:41:58.169Z,5.57
2018-01-18T00:42:57.393Z,5.55
2018-01-18T00:44:52.281Z,5.52
2018-01-18T00:45:51.723Z,5.46
2018-01-18T00:47:46.826Z,5.51
2018-01-18T00:48:46.386Z,5.55
2018-01-18T00:50:41.747Z,5.49
2018-01-18T00:51:40.346Z,5.48
2018-01-18T00:53:34.572Z,5.49
2018-01-18T00:54:34.583Z,5.42
2018-01-18T00:56:28.502Z,5.49
2018-01-18T00:57:28.394Z,5.49
2018-01-18T00:59:23.631Z,5.42
2018-01-18T01:00:22.629Z,5.52
2018-01-18T01:02:16.484Z,5.51
2018-01-18T01:03:16.492Z,5.45
2018-01-18T01:05:11.784Z,5.49
2018-01-18T01:06:10.766Z,5.51
2018-01-18T01:08:18.035Z,5.52
2018-01-18T01:09:17.731Z,5.57
2018-01-18T01:11:11.372Z,5.52
2018-01-18T01:12:11.387Z,5.52
2018-01-18T01:14:04.817Z,5.51
2018-01-18T01:15:04.811Z,5.52
2018-01-18T01:17:00.992Z,5.57
2018-01-18T01:18:00.962Z,5.63
2018-01-18T01:19:57.533Z,5.62
2018-01-18T01:20:55.479Z,5.62
2018-01-18T01:22:49.887Z,5.59
2018-01-18T01:23:49.077Z,5.64
2018-01-18T01:25:42.546Z,5.62
2018-01-18T01:26:42.503Z,5.63
2018-01-18T01:28:36.961Z,5.62
2018-01-18T01:29:37.449Z,5.63
2018-01-18T01:31:32.404Z,5.70
2018-01-18T01:32:32.393Z,5.67
2018-01-18T01:34:27.901Z,5.72
2018-01-18T01:35:26.501Z,5.69
2018-01-18T01:37:21.456Z,5.59
2018-01-18T01:38:21.174Z,5.69
2018-01-18T01:40:15.598Z,5.70
2018-01-18T01:41:15.418Z,5.70
2018-01-18T01:43:08.816Z,5.69
2018-01-18T01:44:09.393Z,5.69
2018-01-18T01:46:03.698Z,5.64
2018-01-18T01:47:03.180Z,5.69
2018-01-18T01:48:57.852Z,5.73
2018-01-18T01:49:57.607Z,5.67
2018-01-18T01:51:52.058Z,5.62
2018-01-18T01:52:52.998Z,5.67
2018-01-18T01:54:48.025Z,5.63
2018-01-18T01:55:47.149Z,5.63
2018-01-18T01:57:41.606Z,5.63
2018-01-18T01:58:40.675Z,5.70
2018-01-18T02:00:35.088Z,5.63
2018-01-18T02:01:35.090Z,5.59
2018-01-18T02:03:28.958Z,5.70
2018-01-18T02:04:29.547Z,5.69
2018-01-18T02:06:23.328Z,5.60
2018-01-18T02:07:22.556Z,5.75
2018-01-18T02:09:16.500Z,5.80
2018-01-18T02:10:15.971Z,5.69
2018-01-18T02:12:09.421Z,5.73
2018-01-18T02:13:09.930Z,5.77
2018-01-18T02:15:03.354Z,5.77
2018-01-18T02:16:02.832Z,5.75
2018-01-18T02:17:58.305Z,5.75
2018-01-18T02:18:57.460Z,5.73
2018-01-18T02:20:51.893Z,5.75
2018-01-18T02:21:51.039Z,5.77
2018-01-18T02:23:45.449Z,5.69
2018-01-18T02:24:45.442Z,5.78
2018-01-18T02:26:39.887Z,5.78
2018-01-18T02:27:40.392Z,5.73
2018-01-18T02:29:34.385Z,5.84
2018-01-18T02:30:34.325Z,5.78
2018-01-18T02:32:30.182Z,5.89
2018-01-18T02:33:28.861Z,5.95
2018-01-18T02:35:24.787Z,5.95
2018-01-18T02:36:23.348Z,6.02
2018-01-18T02:38:18.748Z,5.99
2018-01-18T02:39:17.823Z,5.98
2018-01-18T02:41:12.765Z,6.00
2018-01-18T02:42:11.162Z,6.00
2018-01-18T02:44:05.666Z,6.03
2018-01-18T02:45:04.830Z,5.99
2018-01-18T02:47:00.195Z,5.99
2018-01-18T02:47:59.669Z,6.05
2018-01-18T02:49:53.969Z,6.07
2018-01-18T02:50:53.942Z,6.05
2018-01-18T02:52:49.939Z,6.02
2018-01-18T03:00:52.545Z,5.96
2018-01-18T03:01:52.600Z,6.00
2018-01-18T03:03:47.287Z,6.05
2018-01-18T03:04:47.969Z,6.06
2018-01-18T03:06:42.865Z,6.07
2018-01-18T03:07:41.574Z,6.00
2018-01-18T03:09:36.567Z,6.03
2018-01-18T03:10:36.395Z,6.06
2018-01-18T03:12:31.066Z,6.07
2018-01-18T03:13:31.057Z,6.03
2018-01-18T03:15:27.552Z,6.03
2018-01-18T03:16:25.066Z,5.99
2018-01-18T03:18:19.603Z,6.05
2018-01-18T03:19:19.616Z,5.95
2018-01-18T03:21:13.030Z,5.98
2018-01-18T03:22:13.006Z,5.98
2018-01-18T03:24:06.973Z,5.96
2018-01-18T03:25:06.449Z,6.02
2018-01-18T03:27:03.908Z,5.95
2018-01-18T03:28:03.917Z,5.91
2018-01-18T03:34:21.705Z,5.69
2018-01-18T03:35:20.858Z,5.64
2018-01-18T03:37:17.312Z,5.60
2018-01-18T03:38:15.701Z,5.66
2018-01-18T03:40:12.297Z,5.63
2018-01-18T03:41:12.596Z,5.55
2018-01-18T03:43:06.135Z,5.54
2018-01-18T03:44:06.104Z,5.52
2018-01-18T03:46:00.553Z,5.54
2018-01-18T03:47:00.591Z,5.46
2018-01-18T03:48:55.476Z,5.51
2018-01-18T03:49:55.958Z,5.46
2018-01-18T03:51:50.973Z,5.51
2018-01-18T03:52:51.388Z,5.49
2018-01-18T03:54:43.995Z,5.49
2018-01-18T03:55:44.621Z,5.51
2018-01-18T03:57:39.248Z,5.44
2018-01-18T03:58:39.915Z,5.42
2018-01-18T04:00:33.475Z,5.42
2018-01-18T04:01:33.495Z,5.34
2018-01-18T04:03:30.489Z,5.36
2018-01-18T04:04:29.566Z,5.37
2018-01-18T04:06:24.056Z,5.39
2018-01-18T04:07:24.040Z,5.41
2018-01-18T04:09:18.502Z,5.45
2018-01-18T04:10:18.446Z,5.37
2018-01-18T04:12:26.938Z,5.39
2018-01-18T04:13:25.457Z,5.33
2018-01-18T04:15:19.923Z,5.36
2018-01-18T04:16:19.895Z,5.37
2018-01-18T04:18:15.865Z,5.33
2018-01-18T04:19:15.829Z,5.34
2018-01-18T04:21:09.772Z,5.34
2018-01-18T04:22:09.243Z,5.27
2018-01-18T04:24:05.696Z,5.26
2018-01-18T04:25:05.178Z,5.28
2018-01-18T04:27:01.161Z,5.33
2018-01-18T04:28:01.142Z,5.24
2018-01-18T04:29:55.598Z,5.10
2018-01-18T04:30:55.590Z,5.10
2018-01-18T04:32:49.985Z,5.03
2018-01-18T04:33:49.989Z,5.16
2018-01-18T04:35:46.959Z,5.20
2018-01-18T04:36:46.902Z,5.05
2018-01-18T04:38:42.885Z,5.06
2018-01-18T04:39:42.845Z,5.06
2018-01-18T04:41:38.797Z,4.98
2018-01-18T04:42:38.766Z,5.06
2018-01-18T04:44:35.217Z,5.06
2018-01-18T04:45:34.680Z,5.00
2018-01-18T04:47:31.635Z,5.06
2018-01-18T04:48:31.630Z,5.09
2018-01-18T04:50:28.109Z,5.09
2018-01-18T04:51:27.107Z,5.05
2018-01-18T04:53:22.509Z,5.03
2018-01-18T04:54:23.024Z,5.08
2018-01-18T04:56:18.416Z,5.09
2018-01-18T04:57:18.418Z,5.09
2018-01-18T04:59:14.383Z,5.18
2018-01-18T05:00:14.856Z,5.10
2018-01-18T05:02:10.793Z,5.16
2018-01-18T05:03:10.278Z,5.20
2018-01-18T05:05:06.237Z,5.09
2018-01-18T05:06:06.216Z,5.12
2018-01-18T05:08:02.182Z,5.23
2018-01-18T05:09:02.144Z,5.18
2018-01-18T05:10:58.615Z,5.24
2018-01-18T05:11:58.044Z,5.37
2018-01-18T05:13:54.016Z,5.42
2018-01-18T05:14:53.974Z,5.39
2018-01-18T05:16:50.456Z,5.39
2018-01-18T05:17:49.888Z,5.37
2018-01-18T05:19:45.840Z,5.49
2018-01-18T05:20:45.836Z,5.52
2018-01-18T05:22:41.293Z,5.63
2018-01-18T05:23:41.195Z,5.57
2018-01-18T05:25:34.679Z,5.64
2018-01-18T05:26:34.694Z,5.62
2018-01-18T05:28:29.104Z,5.75
2018-01-18T05:29:29.622Z,5.70
2018-01-18T05:31:24.561Z,5.72
2018-01-18T05:32:24.040Z,5.73
2018-01-18T05:34:18.986Z,5.82
2018-01-18T05:35:17.960Z,5.81
2018-01-18T05:37:14.416Z,5.85
2018-01-18T05:38:13.905Z,5.81
2018-01-18T05:40:10.771Z,5.88
2018-01-18T05:41:09.841Z,5.87
2018-01-18T05:43:05.804Z,5.92
2018-01-18T05:44:05.720Z,5.99
2018-01-18T05:46:01.678Z,5.99
2018-01-18T05:47:01.655Z,6.00
2018-01-18T05:48:57.613Z,6.05
2018-01-18T05:49:57.599Z,6.07
2018-01-18T05:51:52.550Z,6.09
2018-01-18T05:52:52.002Z,6.09
2018-01-18T05:54:45.440Z,6.10
2018-01-18T05:55:45.418Z,6.15
2018-01-18T05:57:40.879Z,6.13
2018-01-18T05:58:39.857Z,6.21
2018-01-18T06:00:34.293Z,6.31
2018-01-18T06:01:34.803Z,6.31
2018-01-18T06:03:31.723Z,6.37
2018-01-18T06:04:30.729Z,6.39
2018-01-18T06:06:26.082Z,6.44
2018-01-18T06:07:24.631Z,6.43
2018-01-18T06:09:19.094Z,6.52
2018-01-18T06:10:19.052Z,6.52
2018-01-18T06:12:15.504Z,6.64
2018-01-18T06:13:14.983Z,6.58
2018-01-18T06:15:09.420Z,6.65
2018-01-18T06:16:08.387Z,6.65
2018-01-18T06:18:06.853Z,6.75
2018-01-18T06:19:05.210Z,6.65
2018-01-18T06:21:04.136Z,6.78
2018-01-18T06:22:03.240Z,6.76
2018-01-18T06:23:57.672Z,6.72
2018-01-18T06:24:57.638Z,6.73
2018-01-18T06:26:55.019Z,6.80
2018-01-18T06:27:53.591Z,6.86
2018-01-18T06:29:48.535Z,6.94
2018-01-18T06:30:47.999Z,6.86
2018-01-18T06:32:43.922Z,6.98
2018-01-18T06:33:43.921Z,6.94
2018-01-18T06:35:37.348Z,7.12
2018-01-18T06:36:37.334Z,7.09
2018-01-18T06:38:33.309Z,7.12
2018-01-18T06:39:33.251Z,7.16
2018-01-18T06:41:28.216Z,7.18
2018-01-18T06:42:28.634Z,7.12
2018-01-18T06:44:23.124Z,7.18
2018-01-18T06:45:22.099Z,7.27
2018-01-18T06:47:19.584Z,7.29
2018-01-18T06:48:18.559Z,7.27
2018-01-18T06:50:14.033Z,7.27
2018-01-18T06:51:13.985Z,7.31
2018-01-18T06:53:09.945Z,7.36
2018-01-18T06:54:10.427Z,7.33
2018-01-18T06:56:06.344Z,7.33
2018-01-18T06:57:05.801Z,7.33
2018-01-18T06:59:00.266Z,7.36
2018-01-18T07:00:00.240Z,7.44
2018-01-18T07:01:54.652Z,7.49
2018-01-18T07:02:54.666Z,7.51
2018-01-18T07:04:50.036Z,7.67
2018-01-18T07:05:49.088Z,7.61
2018-01-18T07:07:43.503Z,7.78
2018-01-18T07:08:43.513Z,7.73
2018-01-18T07:10:42.971Z,7.95
2018-01-18T07:11:42.465Z,8.10
2018-01-18T07:13:35.969Z,8.14
2018-01-18T07:14:35.974Z,8.31
2018-01-18T07:16:33.430Z,8.31
2018-01-18T07:17:32.417Z,8.32
2018-01-18T07:19:26.352Z,8.47
2018-01-18T07:20:26.336Z,8.58
2018-01-18T07:22:20.738Z,8.67
2018-01-18T07:23:20.719Z,8.68
2018-01-18T07:25:15.150Z,8.80
2018-01-18T07:26:15.159Z,8.80
2018-01-18T07:28:09.614Z,8.77
2018-01-18T07:29:09.591Z,8.85
2018-01-18T07:31:07.049Z,9.01
2018-01-18T07:32:06.066Z,8.94
2018-01-18T07:34:02.983Z,9.08
2018-01-18T07:35:01.485Z,9.16
2018-01-18T07:36:55.930Z,9.27
2018-01-18T07:37:55.904Z,9.52
2018-01-18T07:39:50.357Z,9.66
2018-01-18T07:40:50.328Z,9.66
2018-01-18T07:42:46.259Z,9.88
2018-01-18T07:43:46.255Z,9.81
2018-01-18T07:45:40.712Z,9.88
2018-01-18T07:46:41.627Z,9.89
2018-01-18T07:48:36.734Z,10.03
2018-01-18T07:49:36.891Z,10.11
2018-01-18T07:51:30.376Z,10.20
2018-01-18T07:52:29.615Z,10.25
2018-01-18T07:54:24.115Z,10.20
2018-01-18T07:55:24.074Z,10.17
2018-01-18T07:57:34.081Z,10.17
2018-01-18T07:58:33.672Z,10.21
2018-01-18T08:01:01.949Z,10.23
2018-01-18T08:01:53.897Z,10.15
2018-01-18T08:03:49.833Z,10.17
2018-01-18T08:04:49.832Z,10.23
2018-01-18T08:06:46.439Z,10.18
2018-01-18T08:09:51.883Z,10.21
2018-01-18T08:12:22.863Z,10.21
2018-01-18T08:13:22.353Z,10.21
2018-01-18T08:15:18.533Z,10.35
2018-01-18T08:16:18.526Z,10.36
2018-01-18T08:18:13.668Z,10.36
2018-01-18T08:19:13.412Z,10.35
2018-01-18T08:21:11.777Z,10.49
2018-01-18T08:22:11.267Z,10.58
2018-01-18T08:24:08.440Z,10.51
2018-01-18T08:25:05.027Z,10.46
2018-01-18T08:27:00.068Z,10.55
2018-01-18T08:28:00.477Z,10.61
2018-01-18T08:29:55.561Z,10.61
2018-01-18T08:30:55.520Z,10.69
2018-01-18T08:32:51.053Z,10.76
2018-01-18T08:33:50.492Z,10.83
2018-01-18T08:35:46.421Z,10.75
2018-01-18T08:36:46.401Z,10.80
2018-01-18T08:38:42.860Z,10.94
2018-01-18T08:39:41.992Z,10.98
2018-01-18T08:41:38.300Z,11.27
2018-01-18T08:42:37.781Z,11.18
2018-01-18T08:44:34.232Z,11.26
2018-01-18T08:45:33.723Z,11.30
2018-01-18T08:47:29.669Z,11.45
2018-01-18T08:48:29.659Z,11.35
2018-01-18T08:50:24.120Z,11.52
2018-01-18T08:51:24.105Z,11.73
2018-01-18T08:53:19.051Z,11.91
2018-01-18T08:54:18.533Z,11.89
2018-01-18T08:56:13.908Z,12.01
2018-01-18T08:57:12.983Z,12.00
2018-01-18T08:59:07.452Z,12.08
2018-01-18T09:00:07.941Z,12.22
2018-01-18T09:02:01.876Z,12.23
2018-01-18T09:03:01.877Z,12.29
2018-01-18T09:04:56.323Z,12.26
2018-01-18T09:05:56.314Z,12.36
2018-01-18T09:07:52.784Z,12.26
2018-01-18T09:08:52.266Z,12.41
2018-01-18T09:10:47.211Z,12.41
2018-01-18T09:11:46.681Z,12.40
2018-01-18T09:13:42.662Z,12.55
2018-01-18T09:14:41.129Z,12.51
2018-01-18T09:16:35.569Z,12.56
2018-01-18T09:17:35.580Z,12.58
2018-01-18T09:19:30.029Z,12.55
2018-01-18T09:20:30.533Z,12.58
2018-01-18T09:22:25.470Z,12.56
2018-01-18T09:23:24.463Z,12.52
2018-01-18T09:25:20.869Z,12.53
2018-01-18T09:26:20.356Z,12.55
2018-01-18T09:28:14.832Z,12.61
2018-01-18T09:29:14.799Z,12.55
2018-01-18T09:31:10.763Z,12.41
2018-01-18T09:32:10.743Z,12.48
2018-01-18T09:34:05.756Z,12.41
2018-01-18T09:35:05.248Z,12.44
2018-01-18T09:37:00.164Z,12.40
2018-01-18T09:38:00.645Z,12.37
2018-01-18T09:39:55.618Z,12.55
2018-01-18T09:40:55.585Z,12.53
2018-01-18T09:42:50.539Z,12.41
2018-01-18T09:43:50.037Z,12.45
2018-01-18T09:45:46.011Z,12.43
2018-01-18T09:46:45.964Z,12.44
2018-01-18T09:48:41.920Z,12.43
2018-01-18T09:49:42.419Z,12.43
2018-01-18T09:51:37.903Z,12.26
2018-01-18T09:52:37.853Z,12.26
2018-01-18T09:54:34.313Z,12.25
2018-01-18T09:55:33.804Z,12.25
2018-01-18T09:57:30.265Z,12.26
2018-01-18T09:58:29.743Z,12.23
2018-01-18T10:00:26.189Z,12.18
2018-01-18T10:01:26.196Z,12.20
2018-01-18T10:03:22.657Z,12.13
2018-01-18T10:04:21.611Z,12.19
2018-01-18T10:06:18.571Z,12.20
2018-01-18T10:07:18.072Z,12.19
2018-01-18T10:09:14.525Z,12.13
2018-01-18T10:10:13.509Z,12.18
2018-01-18T10:12:09.446Z,12.04
2018-01-18T10:13:09.453Z,12.05
2018-01-18T10:15:04.428Z,12.00
2018-01-18T10:16:04.398Z,12.01
2018-01-18T10:17:58.329Z,11.88
2018-01-18T10:18:58.318Z,11.91
2018-01-18T10:20:52.767Z,11.86
2018-01-18T10:21:52.770Z,11.88
2018-01-18T10:23:48.738Z,11.70
2018-01-18T10:24:48.738Z,11.73
2018-01-18T10:26:44.630Z,11.79
2018-01-18T10:27:44.662Z,11.70
2018-01-18T10:29:40.638Z,11.60
2018-01-18T10:30:40.615Z,11.61
2018-01-18T10:32:38.075Z,11.51
2018-01-18T10:33:36.493Z,11.45
2018-01-18T10:35:32.475Z,11.45
2018-01-18T10:36:32.950Z,11.39
2018-01-18T10:38:27.394Z,11.06
2018-01-18T10:39:26.883Z,10.92
2018-01-18T10:41:21.477Z,10.72
2018-01-18T10:42:21.320Z,10.59
2018-01-18T10:44:18.776Z,10.75
2018-01-18T10:45:17.284Z,10.67
2018-01-18T10:47:14.220Z,10.57
2018-01-18T10:48:13.474Z,10.51
2018-01-18T10:50:09.435Z,10.57
2018-01-18T10:51:09.346Z,10.51
2018-01-18T10:53:03.788Z,10.59
2018-01-18T10:54:03.745Z,10.57
2018-01-18T10:56:00.230Z,10.51
2018-01-18T10:57:00.087Z,10.57
2018-01-18T10:58:56.535Z,10.41
2018-01-18T10:59:55.943Z,10.49
2018-01-18T11:01:51.886Z,10.35
2018-01-18T11:02:52.451Z,10.26
2018-01-18T11:04:48.848Z,10.21
2018-01-18T11:05:48.836Z,10.26
2018-01-18T11:07:43.806Z,10.18
2018-01-18T11:08:43.813Z,10.18
2018-01-18T11:10:40.292Z,10.13
2018-01-18T11:11:39.727Z,10.05
2018-01-18T11:13:35.691Z,9.88
2018-01-18T11:14:35.679Z,9.72
2018-01-18T11:16:32.128Z,9.67
2018-01-18T11:17:31.664Z,9.60
2018-01-18T11:19:26.603Z,9.63
2018-01-18T11:20:26.113Z,9.70
2018-01-18T11:22:22.080Z,9.67
2018-01-18T11:23:21.995Z,9.70
2018-01-18T11:25:18.471Z,9.78
2018-01-18T11:26:18.470Z,9.89
2018-01-18T11:28:13.925Z,9.85
2018-01-18T11:29:13.873Z,9.81
2018-01-18T11:31:08.829Z,9.72
2018-01-18T11:32:08.303Z,9.72
2018-01-18T11:34:02.767Z,9.60
2018-01-18T11:35:02.737Z,9.66
2018-01-18T11:36:57.192Z,9.66
2018-01-18T11:37:57.176Z,9.59
2018-01-18T11:39:53.614Z,9.62
2018-01-18T11:40:53.111Z,9.62
2018-01-18T11:42:49.098Z,9.78
2018-01-18T11:43:49.006Z,9.71
2018-01-18T11:45:44.973Z,9.90
2018-01-18T11:46:44.978Z,9.82
2018-01-18T11:48:39.449Z,9.62
2018-01-18T11:49:40.356Z,9.45
2018-01-18T11:51:34.350Z,9.35
2018-01-18T11:52:33.853Z,9.24
2018-01-18T11:54:28.309Z,9.29
2018-01-18T11:55:28.298Z,9.27
2018-01-18T11:57:22.250Z,9.27
2018-01-18T11:58:21.731Z,9.29
2018-01-18T12:00:18.157Z,9.37
2018-01-18T12:01:17.678Z,9.47
2018-01-18T12:03:14.100Z,9.47
2018-01-18T12:04:13.543Z,9.26
2018-01-18T12:06:09.514Z,9.14
2018-01-18T12:07:09.477Z,9.21
2018-01-18T12:09:05.919Z,9.24
2018-01-18T12:10:05.396Z,9.16
2018-01-18T12:11:59.872Z,9.17
2018-01-18T12:12:59.842Z,9.20
2018-01-18T12:14:56.286Z,9.24
2018-01-18T12:15:55.781Z,9.26
2018-01-18T12:17:52.246Z,9.24
2018-01-18T12:18:51.700Z,9.17
2018-01-18T12:20:46.131Z,9.20
2018-01-18T12:21:46.676Z,9.19
2018-01-18T12:23:42.593Z,9.24
2018-01-18T12:24:42.078Z,9.20
2018-01-18T12:26:39.024Z,9.20
2018-01-18T12:27:38.954Z,9.26
2018-01-18T12:29:33.984Z,9.17
2018-01-18T12:30:33.966Z,9.11
2018-01-18T12:32:31.433Z,9.17
2018-01-18T12:33:29.881Z,9.12
2018-01-18T12:35:25.836Z,9.34
2018-01-18T12:36:26.328Z,9.30
2018-01-18T12:38:20.247Z,9.24
2018-01-18T12:39:20.256Z,9.19
2018-01-18T12:41:14.690Z,9.17
2018-01-18T12:42:14.685Z,9.09
2018-01-18T12:44:11.138Z,9.23
2018-01-18T12:45:10.651Z,9.23
2018-01-18T12:47:06.586Z,9.20
2018-01-18T12:48:06.542Z,9.14
2018-01-18T12:50:01.523Z,8.86
2018-01-18T12:51:00.973Z,8.92
2018-01-18T12:52:57.436Z,8.95
2018-01-18T12:53:56.893Z,8.94
2018-01-18T12:55:51.316Z,8.97
2018-01-18T12:56:51.829Z,9.04
2018-01-18T12:58:47.762Z,8.90
2018-01-18T12:59:47.256Z,8.86
2018-01-18T13:01:43.715Z,8.77
2018-01-18T13:02:43.185Z,8.80
2018-01-18T13:04:39.189Z,8.80
2018-01-18T13:05:39.148Z,8.79
2018-01-18T13:07:32.605Z,8.80
2018-01-18T13:08:32.572Z,8.72
2018-01-18T13:10:28.542Z,8.80
2018-01-18T13:11:28.520Z,8.86
2018-01-18T13:13:24.491Z,8.82
2018-01-18T13:14:24.975Z,9.01
2018-01-18T13:16:23.847Z,8.95
2018-01-18T13:17:22.390Z,8.79
2018-01-18T13:19:17.336Z,8.94
2018-01-18T13:20:16.827Z,8.85
2018-01-18T13:22:11.292Z,8.80
2018-01-18T13:23:11.268Z,8.77
2018-01-18T13:25:05.731Z,8.80
2018-01-18T13:26:05.712Z,8.71
2018-01-18T13:28:01.166Z,8.85
2018-01-18T13:29:00.150Z,8.80
2018-01-18T13:30:56.621Z,8.57
2018-01-18T13:31:56.064Z,8.68
2018-01-18T13:33:51.023Z,8.71
2018-01-18T13:34:50.525Z,8.58
2018-01-18T13:36:46.986Z,8.60
2018-01-18T13:37:46.435Z,8.46
2018-01-18T13:39:42.896Z,8.44
2018-01-18T13:40:42.884Z,8.46
2018-01-18T13:42:36.768Z,8.62
2018-01-18T13:43:36.768Z,8.60
2018-01-18T13:45:32.695Z,8.61
2018-01-18T13:46:33.240Z,8.46
2018-01-18T13:48:27.183Z,8.47
2018-01-18T13:49:27.145Z,8.44
2018-01-18T13:51:23.091Z,8.60
2018-01-18T13:52:23.063Z,8.43
2018-01-18T13:54:17.485Z,8.61
2018-01-18T13:55:18.005Z,8.52
2018-01-18T13:57:13.458Z,8.47
2018-01-18T13:58:13.431Z,8.46
2018-01-18T14:00:09.348Z,8.60
2018-01-18T14:01:09.393Z,8.49
2018-01-18T14:03:03.750Z,8.47
2018-01-18T14:04:03.742Z,8.44
2018-01-18T14:05:59.724Z,8.57
2018-01-18T14:06:59.663Z,8.53
2018-01-18T14:08:55.596Z,8.53
2018-01-18T14:09:55.599Z,8.49
2018-01-18T14:11:51.570Z,8.34
2018-01-18T14:12:51.511Z,8.36
2018-01-18T14:14:47.479Z,8.34
2018-01-18T14:15:47.449Z,8.40
2018-01-18T14:17:43.926Z,8.49
2018-01-18T14:18:43.387Z,8.50
2018-01-18T14:20:38.342Z,8.47
2018-01-18T14:21:38.344Z,8.43
2018-01-18T14:23:33.765Z,8.36
2018-01-18T14:24:33.775Z,8.34
2018-01-18T14:26:29.710Z,8.36
2018-01-18T14:27:30.220Z,8.31
2018-01-18T14:29:25.640Z,8.36
2018-01-18T14:30:25.634Z,8.29
2018-01-18T14:32:20.111Z,8.25
2018-01-18T14:33:20.595Z,8.29
2018-01-18T14:35:14.467Z,8.28
2018-01-18T14:36:14.467Z,8.29
2018-01-18T14:38:10.442Z,8.31
2018-01-18T14:39:10.390Z,8.31
2018-01-18T14:41:09.350Z,8.26
2018-01-18T14:42:06.357Z,8.31
2018-01-18T14:44:02.791Z,8.26
2018-01-18T14:45:02.793Z,8.24
2018-01-18T14:46:58.725Z,8.25
2018-01-18T14:47:58.223Z,8.26
2018-01-18T14:49:54.150Z,8.16
2018-01-18T14:50:54.135Z,8.10
2018-01-18T14:52:51.590Z,8.09
2018-01-18T14:53:50.587Z,8.09
2018-01-18T14:55:45.006Z,7.96
2018-01-18T14:56:44.479Z,7.93
2018-01-18T14:58:40.444Z,7.91
2018-01-18T14:59:40.412Z,7.99
2018-01-18T15:01:35.364Z,7.78
2018-01-18T15:02:34.863Z,7.82
2018-01-18T15:04:29.352Z,7.77
2018-01-18T15:05:29.325Z,7.83
2018-01-18T15:07:25.440Z,7.77
2018-01-18T15:08:24.268Z,7.75
2018-01-18T15:10:19.693Z,7.74
2018-01-18T15:11:19.727Z,7.74
2018-01-18T15:13:16.167Z,7.75
2018-01-18T15:14:15.616Z,7.74
2018-01-18T15:16:12.073Z,7.71
2018-01-18T15:17:11.547Z,7.71
2018-01-18T15:19:07.495Z,7.74
2018-01-18T15:20:07.544Z,7.80
2018-01-18T15:22:03.947Z,7.86
2018-01-18T15:23:04.429Z,7.74
2018-01-18T15:24:59.474Z,7.77
2018-01-18T15:25:59.928Z,7.75
2018-01-18T15:27:55.896Z,7.82
2018-01-18T15:28:55.386Z,7.77
2018-01-18T15:30:53.872Z,7.71
2018-01-18T15:31:54.326Z,7.71
2018-01-18T15:33:49.440Z,7.68
2018-01-18T15:34:49.364Z,7.75
2018-01-18T15:36:45.295Z,7.70
2018-01-18T15:37:45.347Z,7.55
2018-01-18T15:39:41.735Z,7.73
2018-01-18T15:40:41.217Z,7.48
2018-01-18T15:42:37.116Z,7.64
2018-01-18T15:43:37.137Z,7.59
2018-01-18T15:45:37.067Z,7.59
2018-01-18T15:46:35.183Z,7.55
2018-01-18T15:48:33.194Z,7.48
2018-01-18T15:49:33.125Z,7.52
2018-01-18T15:51:29.092Z,7.51
2018-01-18T15:52:29.086Z,7.47
2018-01-18T15:54:27.582Z,7.40
2018-01-18T15:55:27.171Z,7.39
2018-01-18T15:57:28.545Z,7.40
2018-01-18T15:58:27.699Z,7.39
2018-01-18T16:00:23.781Z,7.34
2018-01-18T16:01:23.763Z,7.30
2018-01-18T16:03:19.730Z,7.27
2018-01-18T16:04:19.703Z,7.27
2018-01-18T16:06:16.168Z,7.21
2018-01-18T16:07:17.076Z,7.31
2018-01-18T16:09:12.067Z,7.15
2018-01-18T16:10:12.086Z,7.23
2018-01-18T16:12:09.646Z,7.21
2018-01-18T16:13:09.622Z,7.27
2018-01-18T16:15:06.034Z,7.19
2018-01-18T16:16:05.514Z,7.13
2018-01-18T16:18:01.981Z,7.09
2018-01-18T16:19:01.967Z,7.11
2018-01-18T16:20:57.369Z,7.09
2018-01-18T16:21:57.369Z,7.13
2018-01-18T16:23:53.846Z,7.09
2018-01-18T16:24:53.306Z,7.09
2018-01-18T16:26:53.102Z,7.09
2018-01-18T16:27:49.757Z,7.00
2018-01-18T16:29:46.913Z,6.94
2018-01-18T16:30:46.890Z,6.86
2018-01-18T16:32:43.327Z,6.90
2018-01-18T16:33:42.760Z,6.86
2018-01-18T16:35:39.707Z,6.78
2018-01-18T16:36:38.686Z,6.82
2018-01-18T16:38:35.630Z,6.78
2018-01-18T16:39:34.651Z,6.79
2018-01-18T16:41:32.652Z,6.72
2018-01-18T16:42:32.608Z,6.76
2018-01-18T16:44:29.091Z,6.72
2018-01-18T16:45:28.521Z,6.76
2018-01-18T16:47:29.466Z,6.80
2018-01-18T16:48:28.940Z,6.85
2018-01-18T16:50:24.856Z,6.82
2018-01-18T16:51:24.857Z,6.86
2018-01-18T16:53:22.312Z,6.82
2018-01-18T16:54:20.803Z,6.82
2018-01-18T16:56:16.798Z,6.82
2018-01-18T16:57:17.281Z,6.83
2018-01-18T16:59:12.711Z,6.93
2018-01-18T17:00:12.664Z,6.82
2018-01-18T17:02:09.141Z,6.90
2018-01-18T17:03:08.613Z,6.88
2018-01-18T17:05:05.070Z,6.88
2018-01-18T17:06:04.540Z,6.82
2018-01-18T17:08:00.482Z,6.80
2018-01-18T17:09:00.469Z,6.83
2018-01-18T17:10:56.398Z,6.75
2018-01-18T17:11:56.415Z,6.64
2018-01-18T17:14:00.546Z,6.65
2018-01-18T17:14:56.473Z,6.55
2018-01-18T17:16:51.253Z,6.62
2018-01-18T17:17:50.325Z,6.61
2018-01-18T17:19:47.189Z,6.55
2018-01-18T17:20:46.283Z,6.47
2018-01-18T17:22:46.125Z,6.44
2018-01-18T17:23:44.317Z,6.40
2018-01-18T17:25:41.187Z,6.40
2018-01-18T17:26:40.258Z,6.33
2018-01-18T17:28:36.204Z,6.46
2018-01-18T17:29:35.633Z,6.46
2018-01-18T17:31:31.838Z,6.60
2018-01-18T17:32:30.666Z,6.58
2018-01-18T17:34:27.584Z,6.65
2018-01-18T17:35:27.583Z,6.57
2018-01-18T17:37:26.218Z,6.67
2018-01-18T17:38:25.660Z,6.73
2018-01-18T17:40:23.555Z,6.79
2018-01-18T17:41:21.651Z,6.78
2018-01-18T17:43:19.082Z,6.85
2018-01-18T17:44:17.568Z,6.83
2018-01-18T17:46:13.530Z,6.88
2018-01-18T17:47:14.010Z,6.85
2018-01-18T17:49:09.417Z,6.86
2018-01-18T17:50:09.411Z,6.88
2018-01-18T17:52:05.349Z,6.86
2018-01-18T17:53:05.384Z,6.91
2018-01-18T17:55:01.302Z,6.75
2018-01-18T17:56:01.302Z,6.65
2018-01-18T17:57:57.235Z,6.64
2018-01-18T17:58:57.721Z,6.57
2018-01-18T18:00:54.197Z,6.64
2018-01-18T18:01:54.143Z,6.55
2018-01-18T18:03:50.571Z,6.51
2018-01-18T18:04:49.569Z,6.40
2018-01-18T18:06:51.096Z,6.46
2018-01-18T18:07:50.830Z,6.46
2018-01-18T18:09:47.296Z,6.42
2018-01-18T18:10:46.749Z,6.36
2018-01-18T18:12:45.239Z,6.33
2018-01-18T18:13:44.204Z,6.33
2018-01-18T18:15:41.012Z,6.34
2018-01-18T18:16:39.474Z,6.28
2018-01-18T18:18:35.451Z,6.15
2018-01-18T18:19:35.414Z,6.15
2018-01-18T18:21:31.874Z,6.14
2018-01-18T18:22:31.355Z,6.05
2018-01-18T18:24:27.316Z,6.02
2018-01-18T18:25:27.786Z,6.00
2018-01-18T18:27:24.751Z,6.05
2018-01-18T18:28:24.228Z,6.03
2018-01-18T18:30:20.685Z,6.05
2018-01-18T18:31:20.172Z,6.02
2018-01-18T18:33:16.112Z,6.05
2018-01-18T18:34:16.068Z,6.00
2018-01-18T18:36:12.538Z,5.95
2018-01-18T18:37:12.034Z,5.92
2018-01-18T18:39:08.478Z,5.92
2018-01-18T18:40:08.450Z,5.88
2018-01-18T18:42:04.390Z,5.75
2018-01-18T18:43:03.830Z,5.80
2018-01-18T18:45:00.312Z,5.73
2018-01-18T18:45:59.818Z,5.54
2018-01-18T18:47:56.234Z,5.51
2018-01-18T18:48:55.716Z,5.39
2018-01-18T18:50:53.640Z,5.21
2018-01-18T18:51:53.647Z,5.31
2018-01-18T18:53:51.674Z,5.10
2018-01-18T18:54:51.676Z,5.09
2018-01-18T18:56:47.603Z,5.18
2018-01-18T18:57:48.119Z,5.02
2018-01-18T18:59:44.576Z,5.09
2018-01-18T19:00:43.498Z,5.15
2018-01-18T19:02:40.470Z,5.13
2018-01-18T19:03:39.423Z,5.12
2018-01-18T19:05:35.340Z,5.12
2018-01-18T19:08:19.384Z,5.18
2018-01-18T19:09:18.277Z,5.10
2018-01-18T19:11:14.214Z,5.05
2018-01-18T19:12:14.721Z,5.05
2018-01-18T19:14:10.147Z,5.09
2018-01-18T19:15:10.188Z,5.15
2018-01-18T19:17:07.104Z,5.15
2018-01-18T19:18:07.575Z,5.12
2018-01-18T19:20:04.211Z,5.21
2018-01-18T19:21:02.555Z,5.10
2018-01-18T19:23:01.005Z,5.10
2018-01-18T19:24:00.014Z,5.15
2018-01-18T19:25:56.989Z,4.98
2018-01-18T19:26:55.985Z,5.02
2018-01-18T19:28:52.433Z,4.90
2018-01-18T19:29:51.917Z,4.84
2018-01-18T19:31:52.418Z,4.72
2018-01-18T19:32:52.373Z,4.78
2018-01-18T19:34:50.843Z,4.75
2018-01-18T19:35:50.812Z,4.69